MRLBMROC

Guest
Details From MRLB - Daniel Oduber Quiros Intl
To MROC - San Jose Juan Santamaria Intl
Flight Number -
Tags Generated
Created
Modified
Stats Distance 87 nm / 161 km
Max Altitude 0 ft / 0 m
Waypoints 2
Social Downloads 5
Likes 0
Share VATSIM

Download

Looking for another format? Having issues loading an existing format? Contact us
Advertisement - Login to hide

Notes

Generated

Route

MRLB MROC

ID Type Via Altitude (ft/m) Position (lat/lon) Dist (leg/tot) Name
O MRLB APT - 0 / 0 10.58905 / -85.55629 - / 0 nm
O MROC APT - 0 / 0 9.98900 / -84.22186 86 / 86 nm

Altitude Profile

Advertisement - Login to hide

MRLB

Details ICAO MRLB (LIR)
Name Daniel Oduber Quiros Intl
Region Costa Rica
Timezone America/Costa_Rica (UTC-6.0)
Stats Elevation 270 ft / 82 m (AMSL)
Location 10.593400° -85.544500°
Runways 1
Magnetic Variation 1.163° W

METAR

MRLB 201900Z 03009KT 9999 BKN040 31/24 A2977 NOSIG

Decode

TAF

Not found

Departure Runways

ID Width Length Bearing (true/mag) Surface Threshold Overrun Markings Lighting
07 148 ft / 45 m 9,031 ft / 2,753 m 70.05° / 71.21° ASPHALT 0 ft / 0 m 0 ft / 0 m PREC-APP CENTERLINE EDGE THRESHOLD ALSF-II
25 148 ft / 45 m 9,031 ft / 2,753 m 250.05° / 251.22° ASPHALT 0 ft / 0 m 0 ft / 0 m PREC-APP CENTERLINE EDGE THRESHOLD ALSF-II

MROC

Details ICAO MROC (SJO)
Name Juan Santamaria Intl - Alajuela
Region Costa Rica
Timezone America/Costa_Rica (UTC-6.0)
Stats Elevation 3,021 ft / 921 m (AMSL)
Location 9.993890° -84.208900°
Runways 1
Magnetic Variation 1.842° W

METAR

MROC 201900Z 29003KT 230V020 9999 -RA SCT035 BKN100 22/21 A2994 NOSIG

Decode

TAF

TAF MROC 201700Z 2018/2118 10006KT 9999 FEW030 TX28/2117Z TN18/2109Z TEMPO 2018/2022 25007KT RA FEW025TCU TEMPO 2100/2105 VRB02KT 5000 BR SCT004

Decode

Destination Runways

ID Width Length Bearing (true/mag) Surface Threshold Overrun Markings Lighting
07 148 ft / 45 m 9,892 ft / 3,015 m 69.13° / 70.97° ASPHALT 0 ft / 0 m 190 ft / 58 m PREC-APP EDGE THRESHOLD MALS REIL-OMNI
25 148 ft / 45 m 9,892 ft / 3,015 m 249.13° / 250.97° ASPHALT 1,621 ft / 494 m 190 ft / 58 m PREC-APP EDGE THRESHOLD REIL-OMNI

Approach Navaids

Runway Type Ident Frequency Range Bearing (true/mag) Slope Elevation
07 OM OM - - 68.91° / 70.76 ° - 3,021 ft / 921 m (AMSL)
07 GS IOCO 109.50 MHz 10 nm / 19 km 69.83° / 71.67 ° 3.00° 930 ft / 283 m (AMSL)
07 DME IOCO 109.50 MHz 18 nm / 33 km - - 930 ft / 283 m (AMSL)
07 LOC-ILS IOCO 109.50 MHz 18 nm / 33 km 68.89° / 70.73 ° - 930 ft / 283 m (AMSL)

Popular Alternatives